createdAt,value
2022-12-03T00:01:44.693Z,0.90
2022-12-03T00:04:18.914Z,1.10
2022-12-03T00:06:47.457Z,1.20
2022-12-03T00:09:15.989Z,1.20
2022-12-03T00:11:44.310Z,1.10
2022-12-03T00:14:14.599Z,0.95
2022-12-03T00:16:42.701Z,1.30
2022-12-03T00:19:11.016Z,1.23
2022-12-03T00:21:39.061Z,1.08
2022-12-03T00:24:07.331Z,1.30
2022-12-03T00:26:35.467Z,1.50
2022-12-03T00:29:03.927Z,1.20
2022-12-03T00:31:31.971Z,1.50
2022-12-03T00:34:00.126Z,1.50
2022-12-03T00:36:28.349Z,1.50
2022-12-03T00:38:56.291Z,1.73
2022-12-03T00:41:24.505Z,1.52
2022-12-03T00:43:52.573Z,1.63
2022-12-03T00:46:21.819Z,1.30
2022-12-03T00:48:49.864Z,1.52
2022-12-03T00:51:18.103Z,1.52
2022-12-03T00:53:46.076Z,1.58
2022-12-03T00:56:13.904Z,2.03
2022-12-03T00:58:42.041Z,1.70
2022-12-03T01:01:09.974Z,1.50
2022-12-03T01:03:39.151Z,1.52
2022-12-03T01:06:07.092Z,1.67
2022-12-03T01:08:35.303Z,1.75
2022-12-03T01:11:03.371Z,1.70
2022-12-03T01:13:31.393Z,1.85
2022-12-03T01:15:59.423Z,1.73
2022-12-03T01:18:28.562Z,1.77
2022-12-03T01:20:56.564Z,1.63
2022-12-03T01:23:24.511Z,1.90
2022-12-03T01:25:52.359Z,1.95
2022-12-03T01:28:20.455Z,2.22
2022-12-03T01:31:07.855Z,2.10
2022-12-03T01:33:35.982Z,2.35
2022-12-03T01:36:04.004Z,2.05
2022-12-03T01:38:31.867Z,2.20
2022-12-03T01:40:59.977Z,2.30
2022-12-03T01:43:27.896Z,2.15
2022-12-03T01:45:55.866Z,1.80
2022-12-03T01:48:23.948Z,1.90
2022-12-03T01:50:51.835Z,2.13
2022-12-03T01:53:20.044Z,2.53
2022-12-03T01:55:48.962Z,1.95
2022-12-03T01:58:19.727Z,2.28
2022-12-03T02:00:47.844Z,2.00
2022-12-03T02:03:21.674Z,2.50
2022-12-03T02:05:50.058Z,2.22
2022-12-03T02:08:39.501Z,2.38
2022-12-03T02:11:33.597Z,2.30
2022-12-03T02:14:05.783Z,2.47
2022-12-03T02:16:37.383Z,2.60
2022-12-03T02:19:24.521Z,2.30
2022-12-03T02:22:08.494Z,2.40
2022-12-03T02:25:15.275Z,2.75
2022-12-03T02:28:35.037Z,2.17
2022-12-03T02:31:05.729Z,2.35
2022-12-03T02:33:54.190Z,2.55
2022-12-03T02:36:23.477Z,2.42
2022-12-03T02:39:12.166Z,2.42
2022-12-03T02:42:18.803Z,3.10
2022-12-03T02:45:12.880Z,2.17
2022-12-03T02:48:38.325Z,1.92
2022-12-03T02:56:14.337Z,1.92
2022-12-03T02:59:05.498Z,2.25
2022-12-03T03:01:54.036Z,1.92
2022-12-03T03:04:43.174Z,1.60
2022-12-03T03:07:31.652Z,2.13
2022-12-03T03:10:23.661Z,2.05
2022-12-03T03:13:14.920Z,2.05
2022-12-03T03:15:43.882Z,1.80
2022-12-03T03:18:33.545Z,1.90
2022-12-03T03:21:21.886Z,1.90
2022-12-03T03:24:10.981Z,1.90
2022-12-03T03:26:59.320Z,1.60
2022-12-03T03:29:47.855Z,1.70
2022-12-03T03:32:38.597Z,1.92
2022-12-03T03:35:08.586Z,1.60
2022-12-03T03:37:57.433Z,2.25
2022-12-03T03:40:47.278Z,2.20
2022-12-03T03:43:16.033Z,2.50
2022-12-03T03:45:45.464Z,2.42
2022-12-03T03:48:35.615Z,2.10
2022-12-03T03:51:23.991Z,2.67
2022-12-03T03:54:13.353Z,2.50
2022-12-03T03:57:01.936Z,3.03
2022-12-03T03:59:50.500Z,2.60
2022-12-03T04:02:39.125Z,2.50
2022-12-03T04:05:28.319Z,2.40
2022-12-03T04:08:16.670Z,3.03
2022-12-03T04:11:12.748Z,2.78
2022-12-03T04:14:01.394Z,3.10
2022-12-03T04:16:49.950Z,2.75
2022-12-03T04:20:10.696Z,3.10
2022-12-03T04:24:21.316Z,3.00
2022-12-03T04:27:59.288Z,3.60
2022-12-03T04:30:47.685Z,3.42
2022-12-03T04:33:54.155Z,4.13
2022-12-03T04:36:42.667Z,3.85
2022-12-03T04:39:31.587Z,3.78
2022-12-03T04:42:09.584Z,3.03
2022-12-03T04:44:42.411Z,3.05
2022-12-03T04:47:27.490Z,3.13
2022-12-03T04:50:15.860Z,2.85
2022-12-03T04:53:06.502Z,3.70
2022-12-03T04:55:34.695Z,3.35
2022-12-03T04:58:22.961Z,3.53
2022-12-03T05:00:52.331Z,3.40
2022-12-03T05:03:21.149Z,3.13
2022-12-03T05:05:59.372Z,3.05
2022-12-03T05:08:27.726Z,3.40
2022-12-03T05:10:56.370Z,3.10
2022-12-03T05:13:43.290Z,3.15
2022-12-03T05:16:31.418Z,3.08
2022-12-03T05:19:19.579Z,3.88
2022-12-03T05:21:47.759Z,3.83
2022-12-03T05:25:10.378Z,3.60
2022-12-03T05:28:29.278Z,3.05
2022-12-03T05:32:09.306Z,2.95
2022-12-03T05:35:12.297Z,3.70
2022-12-03T05:37:40.315Z,3.25
2022-12-03T05:40:09.267Z,3.85
2022-12-03T05:42:55.163Z,4.32
2022-12-03T05:45:38.341Z,3.78
2022-12-03T05:48:14.593Z,4.05
2022-12-03T05:51:04.834Z,4.35
2022-12-03T05:53:33.966Z,4.25
2022-12-03T05:56:02.085Z,4.72
2022-12-03T05:58:32.860Z,4.22
2022-12-03T06:01:22.827Z,4.55
2022-12-03T06:03:53.040Z,4.53
2022-12-03T06:06:56.209Z,4.20
2022-12-03T06:10:18.918Z,3.60
2022-12-03T06:17:18.909Z,4.50
2022-12-03T06:21:16.209Z,4.65
2022-12-03T06:24:30.256Z,5.18
2022-12-03T06:27:19.448Z,4.30
2022-12-03T06:30:43.333Z,5.10
2022-12-03T06:35:11.626Z,4.90
2022-12-03T06:39:50.141Z,4.47
2022-12-03T06:43:53.126Z,5.45
2022-12-03T07:02:10.208Z,4.85
2022-12-03T07:04:52.815Z,4.30
2022-12-03T07:08:12.679Z,3.53
2022-12-03T07:11:31.841Z,4.00
2022-12-03T07:18:19.488Z,4.15
2022-12-03T07:21:20.467Z,4.60
2022-12-03T07:28:35.685Z,4.43
2022-12-03T07:35:12.731Z,4.32
2022-12-03T07:37:41.418Z,4.18
2022-12-03T07:40:30.700Z,4.10
2022-12-03T07:43:56.600Z,4.35
2022-12-03T07:47:18.420Z,4.10
2022-12-03T07:50:12.038Z,3.60
2022-12-03T07:53:44.161Z,3.90
2022-12-03T07:57:20.015Z,4.10
2022-12-03T08:00:40.497Z,4.10
2022-12-03T08:04:00.968Z,4.03
2022-12-03T08:06:50.775Z,4.00
2022-12-03T08:18:17.279Z,4.28
2022-12-03T08:21:08.740Z,6.50
2022-12-03T08:24:02.823Z,4.80
2022-12-03T08:26:57.864Z,4.68
2022-12-03T08:30:32.317Z,3.40
2022-12-03T08:33:00.558Z,3.90
2022-12-03T08:35:31.976Z,6.30
2022-12-03T08:38:24.736Z,4.57
2022-12-03T08:41:15.985Z,3.63
2022-12-03T08:44:37.633Z,3.80
2022-12-03T08:47:27.349Z,3.50
2022-12-03T08:50:41.397Z,3.00
2022-12-03T08:57:27.483Z,3.25
2022-12-03T09:01:02.157Z,3.72
2022-12-03T09:04:22.179Z,4.30
2022-12-03T09:08:10.723Z,3.22
2022-12-03T09:15:13.933Z,5.38
2022-12-03T09:22:27.739Z,3.85
2022-12-03T09:29:47.978Z,4.03
2022-12-03T09:34:07.958Z,4.97
2022-12-03T09:37:00.952Z,3.28
2022-12-03T09:40:20.875Z,3.17
2022-12-03T09:43:08.688Z,3.58
2022-12-03T09:45:57.527Z,3.92
2022-12-03T09:48:47.001Z,3.70
2022-12-03T09:51:37.173Z,3.35
2022-12-03T09:54:30.857Z,11.45
2022-12-03T09:57:20.060Z,2.55
2022-12-03T10:00:25.818Z,5.28
2022-12-03T10:03:22.053Z,2.42
2022-12-03T10:06:24.419Z,1.90
2022-12-03T10:08:55.434Z,4.55
2022-12-03T10:11:25.640Z,2.67
2022-12-03T10:16:21.373Z,2.20
2022-12-03T10:18:54.356Z,5.82
2022-12-03T10:21:41.677Z,2.45
2022-12-03T10:25:12.837Z,1.90
2022-12-03T10:30:00.384Z,1.92
2022-12-03T10:32:51.711Z,2.15
2022-12-03T10:35:22.698Z,2.10
2022-12-03T10:38:07.052Z,2.53
2022-12-03T10:40:40.947Z,4.10
2022-12-03T10:43:18.944Z,2.38
2022-12-03T10:49:19.670Z,2.33
2022-12-03T10:51:48.879Z,2.63
2022-12-03T10:54:31.924Z,2.83
2022-12-03T10:57:06.096Z,3.35
2022-12-03T10:59:35.724Z,2.58
2022-12-03T11:02:09.371Z,2.72
2022-12-03T11:04:41.694Z,3.20
2022-12-03T11:08:01.707Z,3.05
2022-12-03T11:11:28.625Z,3.67
2022-12-03T11:16:14.137Z,3.95
2022-12-03T11:19:47.706Z,4.97
2022-12-03T11:22:38.969Z,7.68
2022-12-03T11:25:28.534Z,4.28
2022-12-03T11:28:12.513Z,4.10
2022-12-03T11:30:52.468Z,5.40
2022-12-03T11:33:22.910Z,4.07
2022-12-03T11:37:12.927Z,3.55
2022-12-03T11:40:26.744Z,4.35
2022-12-03T11:42:57.424Z,3.47
2022-12-03T11:46:17.166Z,3.40
2022-12-03T11:51:00.023Z,3.38
2022-12-03T11:55:02.243Z,3.15
2022-12-03T11:57:37.980Z,2.85
2022-12-03T12:00:22.704Z,2.97
2022-12-03T12:03:04.771Z,3.60
2022-12-03T12:05:34.581Z,3.17
2022-12-03T12:08:04.929Z,2.85
2022-12-03T12:11:33.417Z,3.10
2022-12-03T12:14:27.265Z,2.63
2022-12-03T12:16:57.331Z,3.00
2022-12-03T12:19:51.035Z,2.97
2022-12-03T12:22:27.933Z,2.60
2022-12-03T12:25:35.923Z,2.45
2022-12-03T12:28:26.739Z,2.63
2022-12-03T12:31:27.989Z,2.55
2022-12-03T12:34:19.932Z,2.67
2022-12-03T12:37:27.672Z,2.92
2022-12-03T12:40:19.198Z,3.70
2022-12-03T12:42:55.018Z,3.80
2022-12-03T12:45:25.522Z,2.97
2022-12-03T12:48:08.070Z,3.55
2022-12-03T12:50:37.861Z,4.28
2022-12-03T12:53:15.146Z,4.03
2022-12-03T12:55:49.928Z,3.95
2022-12-03T12:58:20.044Z,4.30
2022-12-03T13:01:17.333Z,3.75
2022-12-03T13:03:45.705Z,3.60
2022-12-03T13:06:16.775Z,4.00
2022-12-03T13:08:49.839Z,5.07
2022-12-03T13:11:41.571Z,4.35
2022-12-03T13:14:35.956Z,3.95
2022-12-03T13:17:25.102Z,3.80
2022-12-03T13:20:05.124Z,2.83
2022-12-03T13:22:39.704Z,3.90
2022-12-03T13:26:00.585Z,3.58
2022-12-03T13:28:57.851Z,3.17
2022-12-03T13:31:41.953Z,3.28
2022-12-03T13:34:22.096Z,4.07
2022-12-03T13:36:57.174Z,3.90
2022-12-03T13:40:31.219Z,3.90
2022-12-03T13:43:00.083Z,4.10
2022-12-03T13:45:37.936Z,3.97
2022-12-03T13:48:26.144Z,4.32
2022-12-03T13:50:56.158Z,4.07
2022-12-03T13:53:35.913Z,3.88
2022-12-03T13:56:24.014Z,5.10
2022-12-03T13:58:53.242Z,4.50
2022-12-03T14:01:21.603Z,4.15
2022-12-03T14:03:51.185Z,3.47
2022-12-03T14:06:19.708Z,3.72
2022-12-03T14:09:20.067Z,3.92
2022-12-03T14:12:06.891Z,3.75
2022-12-03T14:14:35.436Z,3.78
2022-12-03T14:17:04.826Z,3.63
2022-12-03T14:19:33.124Z,2.60
2022-12-03T14:22:34.280Z,3.10
2022-12-03T14:25:02.974Z,3.28
2022-12-03T14:28:08.853Z,3.13
2022-12-03T14:30:37.455Z,3.25
2022-12-03T14:33:05.630Z,3.72
2022-12-03T14:36:06.403Z,3.58
2022-12-03T14:38:36.881Z,3.53
2022-12-03T14:41:25.474Z,4.00
2022-12-03T14:43:53.674Z,4.68
2022-12-03T14:46:57.034Z,4.30
2022-12-03T14:49:26.632Z,4.70
2022-12-03T14:54:09.284Z,5.00
2022-12-03T14:57:09.748Z,4.10
2022-12-03T14:59:37.856Z,4.90
2022-12-03T15:02:39.123Z,4.53
2022-12-03T15:07:40.230Z,5.05
2022-12-03T15:11:00.898Z,6.70
2022-12-03T15:13:49.592Z,5.35
2022-12-03T15:16:39.672Z,5.50
2022-12-03T15:19:10.862Z,5.30
2022-12-03T15:22:16.062Z,5.53
2022-12-03T15:26:38.395Z,4.93
2022-12-03T15:29:29.310Z,5.10
2022-12-03T15:31:59.717Z,5.00
2022-12-03T15:34:29.177Z,4.72
2022-12-03T15:36:58.590Z,4.63
2022-12-03T15:39:48.885Z,4.47
2022-12-03T15:42:24.435Z,4.10
2022-12-03T15:45:15.272Z,4.20
2022-12-03T15:47:57.654Z,4.22
2022-12-03T15:50:28.793Z,4.43
2022-12-03T15:52:57.149Z,3.90
2022-12-03T15:55:25.200Z,3.45
2022-12-03T15:57:56.052Z,3.08
2022-12-03T16:00:24.880Z,3.45
2022-12-03T16:02:54.154Z,3.58
2022-12-03T16:05:24.763Z,4.03
2022-12-03T16:07:57.322Z,3.95
2022-12-03T16:10:26.122Z,5.32
2022-12-03T16:12:55.280Z,4.90
2022-12-03T16:15:27.053Z,4.57
2022-12-03T16:17:58.819Z,3.50
2022-12-03T16:21:00.448Z,4.45
2022-12-03T16:37:59.825Z,4.05
2022-12-03T16:41:52.118Z,3.65
2022-12-03T16:45:23.462Z,2.90
2022-12-03T16:47:53.434Z,2.92
2022-12-03T16:50:29.480Z,2.38
2022-12-03T16:53:01.724Z,2.35
2022-12-03T16:55:35.705Z,2.88
2022-12-03T16:58:55.574Z,3.17
2022-12-03T17:01:25.496Z,2.85
2022-12-03T17:03:57.282Z,3.25
2022-12-03T17:07:17.676Z,2.60
2022-12-03T17:09:45.761Z,3.00
2022-12-03T17:13:08.822Z,3.08
2022-12-03T17:25:46.237Z,3.42
2022-12-03T17:28:14.444Z,3.28
2022-12-03T17:31:40.031Z,4.05
2022-12-03T17:41:06.448Z,3.50
2022-12-03T17:43:36.969Z,3.50
2022-12-03T17:46:11.244Z,3.30
2022-12-03T17:50:56.048Z,3.90
2022-12-03T17:54:16.598Z,3.15
2022-12-03T17:56:47.663Z,3.72
2022-12-03T17:59:16.884Z,3.03
2022-12-03T18:01:45.791Z,3.67
2022-12-03T18:04:14.815Z,3.85
2022-12-03T18:06:43.599Z,3.75
2022-12-03T18:09:12.346Z,3.42
2022-12-03T18:16:53.765Z,4.00
2022-12-03T18:19:23.206Z,4.45
2022-12-03T18:21:55.676Z,4.65
2022-12-03T18:24:27.217Z,4.00
2022-12-03T18:26:56.191Z,3.08
2022-12-03T18:29:57.466Z,2.95
2022-12-03T18:32:29.481Z,2.53
2022-12-03T18:34:58.830Z,2.70
2022-12-03T18:37:59.129Z,2.58
2022-12-03T18:40:27.521Z,3.00
2022-12-03T18:42:56.564Z,2.90
2022-12-03T18:45:25.168Z,2.50
2022-12-03T18:47:59.324Z,3.05
2022-12-03T18:50:29.865Z,3.15
2022-12-03T18:53:00.694Z,3.22
2022-12-03T18:55:34.511Z,3.22
2022-12-03T18:58:03.179Z,2.50
2022-12-03T19:00:31.946Z,3.80
2022-12-03T19:03:04.323Z,2.80
2022-12-03T19:05:35.832Z,3.28
2022-12-03T19:08:12.645Z,2.72
2022-12-03T19:10:42.219Z,2.42
2022-12-03T19:13:11.874Z,2.60
2022-12-03T19:15:41.227Z,2.78
2022-12-03T19:18:11.455Z,3.17
2022-12-03T19:20:41.427Z,2.65
2022-12-03T19:23:10.915Z,2.92
2022-12-03T19:25:39.439Z,2.72
2022-12-03T19:28:07.767Z,3.67
2022-12-03T19:30:35.953Z,2.70
2022-12-03T19:33:05.217Z,2.58
2022-12-03T19:36:27.695Z,2.53
2022-12-03T19:39:01.985Z,2.88
2022-12-03T19:42:24.584Z,2.45
2022-12-03T19:55:37.213Z,2.83
2022-12-03T19:58:05.455Z,3.05
2022-12-03T20:01:12.606Z,3.33
2022-12-03T20:03:50.311Z,2.72
2022-12-03T20:06:21.003Z,2.70
2022-12-03T20:08:50.470Z,2.90
2022-12-03T20:11:22.837Z,2.53
2022-12-03T20:14:01.546Z,2.42
2022-12-03T20:16:33.564Z,2.28
2022-12-03T20:19:53.742Z,3.47
2022-12-03T20:22:23.144Z,2.35
2022-12-03T20:25:38.252Z,2.63
2022-12-03T20:29:46.325Z,2.88
2022-12-03T20:42:11.258Z,3.22
2022-12-03T20:44:39.799Z,2.38
2022-12-03T20:47:39.582Z,3.30
2022-12-03T20:50:09.197Z,3.33
2022-12-03T20:54:51.516Z,3.10
2022-12-03T20:57:57.629Z,3.50
2022-12-03T21:00:26.209Z,2.60
2022-12-03T21:02:55.240Z,3.42
2022-12-03T21:05:24.107Z,3.35
2022-12-03T21:07:54.963Z,3.72
2022-12-03T21:10:45.158Z,3.35
2022-12-03T21:13:15.293Z,2.67
2022-12-03T21:15:44.617Z,2.85
2022-12-03T21:18:17.564Z,2.85
2022-12-03T21:20:47.783Z,3.30
2022-12-03T21:23:17.154Z,3.50
2022-12-03T21:25:45.341Z,3.08
2022-12-03T21:28:13.884Z,3.10
2022-12-03T21:30:42.138Z,3.03
2022-12-03T21:33:10.832Z,3.17
2022-12-03T21:35:57.832Z,3.50
2022-12-03T21:38:30.303Z,3.97
2022-12-03T21:41:17.626Z,3.08
2022-12-03T21:44:38.948Z,2.42
2022-12-03T21:47:10.569Z,3.15
2022-12-03T21:49:56.031Z,3.00
2022-12-03T21:52:24.480Z,2.50
2022-12-03T21:55:45.064Z,3.05
2022-12-03T21:58:15.328Z,2.45
2022-12-03T22:00:44.144Z,3.28
2022-12-03T22:03:27.533Z,3.53
2022-12-03T22:06:49.745Z,3.88
2022-12-03T22:09:39.081Z,3.58
2022-12-03T22:12:07.835Z,2.55
2022-12-03T22:14:42.738Z,3.13
2022-12-03T22:18:38.640Z,3.75
2022-12-03T22:22:35.647Z,3.90
2022-12-03T22:25:03.930Z,3.67
2022-12-03T22:27:33.100Z,3.90
2022-12-03T22:30:01.331Z,3.00
2022-12-03T22:32:32.322Z,3.20
2022-12-03T22:35:02.738Z,3.28
2022-12-03T22:37:39.927Z,3.95
2022-12-03T22:41:35.718Z,4.20
2022-12-03T22:45:39.447Z,4.72
2022-12-03T22:48:11.510Z,5.03
2022-12-03T22:55:00.344Z,4.13
2022-12-03T22:57:32.824Z,4.70
2022-12-03T23:00:59.762Z,4.95
2022-12-03T23:08:19.106Z,4.82
2022-12-03T23:10:50.897Z,4.18
2022-12-03T23:13:28.564Z,4.82
2022-12-03T23:21:29.358Z,4.90
2022-12-03T23:24:00.519Z,5.30
2022-12-03T23:26:29.843Z,4.78
2022-12-03T23:28:58.192Z,5.30
2022-12-03T23:32:21.971Z,4.53
2022-12-03T23:34:50.100Z,4.60
2022-12-03T23:37:20.693Z,5.15
2022-12-03T23:40:11.093Z,4.88
2022-12-03T23:42:53.257Z,5.15
2022-12-03T23:45:22.662Z,5.22
2022-12-03T23:47:58.070Z,5.10
2022-12-03T23:51:33.848Z,5.35
2022-12-03T23:54:03.657Z,4.90
2022-12-03T23:56:37.101Z,4.28
2022-12-03T23:59:39.608Z,4.72
